createdAt,value
2019-01-31T00:00:22.236Z,78.41
2019-01-31T00:03:32.479Z,78.29
2019-01-31T00:06:14.399Z,78.33
2019-01-31T00:09:21.997Z,78.18
2019-01-31T00:12:13.045Z,78.42
2019-01-31T00:14:49.948Z,78.53
2019-01-31T00:17:34.611Z,78.47
2019-01-31T00:20:30.030Z,78.54
2019-01-31T00:23:25.910Z,78.50
2019-01-31T00:26:27.023Z,78.49
2019-01-31T00:29:19.568Z,78.33
2019-01-31T00:32:17.345Z,78.37
2019-01-31T00:35:17.708Z,78.55
2019-01-31T00:38:36.909Z,78.60
2019-01-31T00:41:41.878Z,78.09
2019-01-31T00:44:53.454Z,78.33
2019-01-31T00:47:58.491Z,78.25
2019-01-31T00:50:58.950Z,78.26
2019-01-31T00:53:55.472Z,78.25
2019-01-31T00:57:23.832Z,78.17
2019-01-31T01:00:10.330Z,78.30
2019-01-31T01:02:59.595Z,78.46
2019-01-31T01:06:04.452Z,78.18
2019-01-31T01:09:07.887Z,78.39
2019-01-31T01:12:04.697Z,77.98
2019-01-31T01:14:55.847Z,78.29
2019-01-31T01:17:39.221Z,78.10
2019-01-31T01:20:55.972Z,78.36
2019-01-31T01:23:59.125Z,78.31
2019-01-31T01:27:30.617Z,78.02
2019-01-31T01:30:18.944Z,78.26
2019-01-31T01:33:16.974Z,78.30
2019-01-31T01:36:27.381Z,77.80
2019-01-31T01:39:26.484Z,77.82
2019-01-31T01:42:21.006Z,77.87
2019-01-31T01:45:26.292Z,78.29
2019-01-31T01:48:17.790Z,77.97
2019-01-31T01:51:07.289Z,77.75
2019-01-31T01:54:00.095Z,78.01
2019-01-31T01:56:57.107Z,78.31
2019-01-31T02:00:05.271Z,78.58
2019-01-31T02:03:16.067Z,78.42
2019-01-31T02:06:11.050Z,78.49
2019-01-31T02:09:30.066Z,78.58
2019-01-31T02:12:07.370Z,78.53
2019-01-31T02:15:32.863Z,78.55
2019-01-31T02:18:18.510Z,78.74
2019-01-31T02:21:33.764Z,78.78
2019-01-31T02:24:45.631Z,78.81
2019-01-31T02:28:17.096Z,78.73
2019-01-31T02:31:27.916Z,78.67
2019-01-31T02:34:59.173Z,79.23
2019-01-31T02:37:58.272Z,79.28
2019-01-31T02:41:23.059Z,79.09
2019-01-31T02:44:29.276Z,79.26
2019-01-31T02:47:57.442Z,79.18
2019-01-31T02:51:32.575Z,79.07
2019-01-31T02:54:22.459Z,79.24
2019-01-31T02:57:17.973Z,79.31
2019-01-31T03:00:14.488Z,79.22
2019-01-31T03:03:25.255Z,79.04
2019-01-31T03:06:50.701Z,79.13
2019-01-31T03:09:37.364Z,79.04
2019-01-31T03:12:47.668Z,79.16
2019-01-31T03:15:53.735Z,78.92
2019-01-31T03:18:39.990Z,79.06
2019-01-31T03:21:52.027Z,78.93
2019-01-31T03:24:58.387Z,78.84
2019-01-31T03:28:17.876Z,78.60
2019-01-31T03:31:24.130Z,78.85
2019-01-31T03:34:52.421Z,78.82
2019-01-31T03:37:50.533Z,79.36
2019-01-31T03:40:39.550Z,79.32
2019-01-31T03:43:40.785Z,79.58
2019-01-31T03:46:30.693Z,79.41
2019-01-31T03:49:42.972Z,79.31
2019-01-31T03:52:26.442Z,79.11
2019-01-31T03:55:34.023Z,78.89
2019-01-31T03:58:59.715Z,78.80
2019-01-31T04:02:05.843Z,78.71
2019-01-31T04:04:42.967Z,78.60
2019-01-31T04:07:12.558Z,78.76
2019-01-31T04:09:42.214Z,78.97
2019-01-31T04:12:12.086Z,78.92
2019-01-31T04:14:41.987Z,78.87
2019-01-31T04:17:11.631Z,78.72
2019-01-31T04:19:41.537Z,78.44
2019-01-31T04:22:11.398Z,78.44
2019-01-31T04:24:41.086Z,78.37
2019-01-31T04:27:11.091Z,78.25
2019-01-31T04:29:41.083Z,78.51
2019-01-31T04:32:10.845Z,78.58
2019-01-31T04:34:40.404Z,78.65
2019-01-31T04:37:10.357Z,78.92
2019-01-31T04:39:40.278Z,79.16
2019-01-31T04:42:10.170Z,79.06
2019-01-31T04:44:40.718Z,78.76
2019-01-31T04:47:10.546Z,78.69
2019-01-31T04:49:40.497Z,79.00
2019-01-31T04:52:10.674Z,79.01
2019-01-31T04:54:40.442Z,78.79
2019-01-31T04:57:11.068Z,78.62
2019-01-31T04:59:41.326Z,78.12
2019-01-31T05:02:11.408Z,78.12
2019-01-31T05:04:41.392Z,78.01
2019-01-31T05:07:11.515Z,78.05
2019-01-31T05:09:41.947Z,77.91
2019-01-31T05:12:14.117Z,77.99
2019-01-31T05:14:44.206Z,77.54
2019-01-31T05:17:14.117Z,77.82
2019-01-31T05:19:45.854Z,77.78
2019-01-31T05:22:15.296Z,77.44
2019-01-31T05:24:45.146Z,77.54
2019-01-31T05:27:15.011Z,77.63
2019-01-31T05:29:44.754Z,77.73
2019-01-31T05:32:14.385Z,77.51
2019-01-31T05:34:44.093Z,77.58
2019-01-31T05:37:13.880Z,77.24
2019-01-31T05:39:43.676Z,77.64
2019-01-31T05:42:13.219Z,77.60
2019-01-31T05:44:43.232Z,77.23
2019-01-31T05:47:13.005Z,77.30
2019-01-31T05:49:42.741Z,77.63
2019-01-31T05:52:12.994Z,77.33
2019-01-31T05:54:42.643Z,77.38
2019-01-31T05:57:12.469Z,77.43
2019-01-31T05:59:42.429Z,77.66
2019-01-31T06:02:14.264Z,77.49
2019-01-31T06:04:43.970Z,77.17
2019-01-31T06:07:14.811Z,77.33
2019-01-31T06:09:44.528Z,77.42
2019-01-31T06:12:14.077Z,77.25
2019-01-31T06:14:43.828Z,77.20
2019-01-31T06:17:13.555Z,77.52
2019-01-31T06:19:43.412Z,77.29
2019-01-31T06:22:13.106Z,77.33
2019-01-31T06:24:44.144Z,77.23
2019-01-31T06:27:13.835Z,77.31
2019-01-31T06:29:43.473Z,77.33
2019-01-31T06:32:13.119Z,77.42
2019-01-31T06:34:42.660Z,77.30
2019-01-31T06:37:12.448Z,76.86
2019-01-31T06:39:42.232Z,76.73
2019-01-31T06:42:13.665Z,76.95
2019-01-31T06:44:43.264Z,77.13
2019-01-31T06:47:13.077Z,77.18
2019-01-31T06:49:42.596Z,77.11
2019-01-31T06:52:12.987Z,77.32
2019-01-31T06:54:42.707Z,77.33
2019-01-31T06:57:12.568Z,77.55
2019-01-31T06:59:42.463Z,77.14
2019-01-31T07:02:12.228Z,77.31
2019-01-31T07:04:42.127Z,77.41
2019-01-31T07:07:11.977Z,77.47
2019-01-31T07:09:41.557Z,77.25
2019-01-31T07:12:11.466Z,77.36
2019-01-31T07:14:43.092Z,77.12
2019-01-31T07:17:12.693Z,77.44
2019-01-31T07:19:45.335Z,77.22
2019-01-31T07:22:14.925Z,77.33
2019-01-31T07:24:44.838Z,77.31
2019-01-31T07:27:14.553Z,77.32
2019-01-31T07:29:44.308Z,77.33
2019-01-31T07:32:14.028Z,76.96
2019-01-31T07:34:43.766Z,76.86
2019-01-31T07:37:13.338Z,76.79
2019-01-31T07:39:42.941Z,76.95
2019-01-31T07:42:12.673Z,77.24
2019-01-31T07:44:42.382Z,77.24
2019-01-31T07:47:12.289Z,77.05
2019-01-31T07:49:42.342Z,77.01
2019-01-31T07:52:12.092Z,76.87
2019-01-31T07:54:41.991Z,76.77
2019-01-31T07:57:11.670Z,76.12
2019-01-31T07:59:41.481Z,76.31
2019-01-31T08:02:12.395Z,76.37
2019-01-31T08:04:42.478Z,76.49
2019-01-31T08:07:12.336Z,76.46
2019-01-31T08:09:42.065Z,76.48
2019-01-31T08:12:12.121Z,76.43
2019-01-31T08:14:41.892Z,76.58
2019-01-31T08:17:11.548Z,76.41
2019-01-31T08:19:41.257Z,76.73
2019-01-31T08:22:11.243Z,76.47
2019-01-31T08:24:41.034Z,76.31
2019-01-31T08:27:10.775Z,76.17
2019-01-31T08:29:40.798Z,76.24
2019-01-31T08:32:10.301Z,76.31
2019-01-31T08:34:40.315Z,76.09
2019-01-31T08:37:10.201Z,75.92
2019-01-31T08:39:39.997Z,76.25
2019-01-31T08:42:09.630Z,76.09
2019-01-31T08:44:39.602Z,75.89
2019-01-31T08:47:09.677Z,75.98
2019-01-31T08:49:39.684Z,75.86
2019-01-31T08:52:10.744Z,75.99
2019-01-31T08:54:40.564Z,75.98
2019-01-31T08:57:10.402Z,76.02
2019-01-31T08:59:40.421Z,75.87
2019-01-31T09:02:12.449Z,75.83
2019-01-31T09:04:42.101Z,75.94
2019-01-31T09:07:12.063Z,75.69
2019-01-31T09:09:42.078Z,75.83
2019-01-31T09:12:15.296Z,75.75
2019-01-31T09:14:43.407Z,76.05
2019-01-31T09:17:13.046Z,75.91
2019-01-31T09:19:42.618Z,75.74
2019-01-31T09:22:40.890Z,75.86
2019-01-31T09:25:39.346Z,76.04
2019-01-31T09:28:56.114Z,75.83
2019-01-31T09:32:04.683Z,75.76
2019-01-31T09:35:04.985Z,75.75
2019-01-31T09:38:20.259Z,75.36
2019-01-31T09:41:20.001Z,75.66
2019-01-31T09:44:30.354Z,75.74
2019-01-31T09:47:58.674Z,75.78
2019-01-31T09:51:14.410Z,75.77
2019-01-31T09:54:25.343Z,75.81
2019-01-31T09:57:50.859Z,75.96
2019-01-31T10:01:25.592Z,75.77
2019-01-31T10:04:30.065Z,76.12
2019-01-31T10:07:16.537Z,75.90
2019-01-31T10:10:35.714Z,75.98
2019-01-31T10:14:16.360Z,75.99
2019-01-31T10:17:39.598Z,75.98
2019-01-31T10:20:36.282Z,76.11
2019-01-31T10:23:19.187Z,76.17
2019-01-31T10:26:34.111Z,76.33
2019-01-31T10:29:35.733Z,76.34
2019-01-31T10:32:51.914Z,76.04
2019-01-31T10:36:08.875Z,76.35
2019-01-31T10:39:05.420Z,76.41
2019-01-31T10:42:09.948Z,76.50
2019-01-31T10:45:10.473Z,76.39
2019-01-31T10:48:24.139Z,76.23
2019-01-31T10:51:29.100Z,76.05
2019-01-31T10:54:45.721Z,76.28
2019-01-31T10:57:45.542Z,76.32
2019-01-31T11:00:50.403Z,76.22
2019-01-31T11:03:58.199Z,75.91
2019-01-31T11:07:03.361Z,76.05
2019-01-31T11:09:54.975Z,76.18
2019-01-31T11:13:17.413Z,75.98
2019-01-31T11:16:23.102Z,75.97
2019-01-31T11:19:29.878Z,75.89
2019-01-31T11:23:01.474Z,76.11
2019-01-31T11:26:15.281Z,75.98
2019-01-31T11:29:15.920Z,75.86
2019-01-31T11:32:53.279Z,76.11
2019-01-31T11:35:43.778Z,75.88
2019-01-31T11:39:00.247Z,75.78
2019-01-31T11:42:02.463Z,75.68
2019-01-31T11:45:05.192Z,75.63
2019-01-31T11:48:01.125Z,75.81
2019-01-31T11:51:05.982Z,76.06
2019-01-31T11:54:01.949Z,75.86
2019-01-31T11:57:14.189Z,76.06
2019-01-31T11:59:43.859Z,75.95
2019-01-31T12:02:13.753Z,76.02
2019-01-31T12:04:43.427Z,75.87
2019-01-31T12:07:13.078Z,75.90
2019-01-31T12:09:42.794Z,75.87
2019-01-31T12:12:15.339Z,75.82
2019-01-31T12:14:44.931Z,75.41
2019-01-31T12:17:15.108Z,75.76
2019-01-31T12:19:44.916Z,75.74
2019-01-31T12:22:14.892Z,75.65
2019-01-31T12:24:44.721Z,75.70
2019-01-31T12:27:14.499Z,75.90
2019-01-31T12:29:44.262Z,75.88
2019-01-31T12:32:14.305Z,75.95
2019-01-31T12:34:43.982Z,75.77
2019-01-31T12:37:15.469Z,75.90
2019-01-31T12:39:44.952Z,76.03
2019-01-31T12:42:14.772Z,76.12
2019-01-31T12:44:44.375Z,76.26
2019-01-31T12:47:13.991Z,76.37
2019-01-31T12:49:43.744Z,76.42
2019-01-31T12:52:13.508Z,76.66
2019-01-31T12:54:44.577Z,76.52
2019-01-31T12:57:15.052Z,76.52
2019-01-31T12:59:44.980Z,76.37
2019-01-31T13:02:14.754Z,76.55
2019-01-31T13:04:44.808Z,76.37
2019-01-31T13:07:14.793Z,76.51
2019-01-31T13:09:44.518Z,76.44
2019-01-31T13:12:14.398Z,76.30
2019-01-31T13:14:44.242Z,76.42
2019-01-31T13:17:14.228Z,76.21
2019-01-31T13:19:44.114Z,76.34
2019-01-31T13:22:14.569Z,76.47
2019-01-31T13:24:44.246Z,76.51
2019-01-31T13:27:13.911Z,76.64
2019-01-31T13:29:43.654Z,76.43
2019-01-31T13:32:13.472Z,76.87
2019-01-31T13:34:43.320Z,76.73
2019-01-31T13:37:13.059Z,76.83
2019-01-31T13:39:42.801Z,76.75
2019-01-31T13:42:12.559Z,76.48
2019-01-31T13:44:42.535Z,76.77
2019-01-31T13:47:12.410Z,76.90
2019-01-31T13:49:42.535Z,76.95
2019-01-31T13:52:12.320Z,76.83
2019-01-31T13:54:42.103Z,77.10
2019-01-31T13:57:12.049Z,77.23
2019-01-31T13:59:42.301Z,77.27
2019-01-31T14:02:12.435Z,77.11
2019-01-31T14:04:42.342Z,77.25
2019-01-31T14:07:14.828Z,77.27
2019-01-31T14:09:44.539Z,77.28
2019-01-31T14:12:14.236Z,77.39
2019-01-31T14:14:44.867Z,77.36
2019-01-31T14:17:14.499Z,77.61
2019-01-31T14:19:44.689Z,77.67
2019-01-31T14:22:14.516Z,77.61
2019-01-31T14:24:44.090Z,77.37
2019-01-31T14:27:13.970Z,77.32
2019-01-31T14:29:43.767Z,77.15
2019-01-31T14:32:15.560Z,77.33
2019-01-31T14:34:45.254Z,77.41
2019-01-31T14:37:14.905Z,77.38
2019-01-31T14:39:44.628Z,77.64
2019-01-31T14:42:14.250Z,77.50
2019-01-31T14:44:43.990Z,77.60
2019-01-31T14:47:13.682Z,77.66
2019-01-31T14:49:43.394Z,77.82
2019-01-31T14:52:13.061Z,77.68
2019-01-31T14:54:42.961Z,77.71
2019-01-31T14:57:12.698Z,77.92
2019-01-31T14:59:42.450Z,77.98
2019-01-31T15:02:12.166Z,78.12
2019-01-31T15:04:42.256Z,78.09
2019-01-31T15:07:12.577Z,78.12
2019-01-31T15:09:42.906Z,78.17
2019-01-31T15:12:12.693Z,78.14
2019-01-31T15:14:42.616Z,78.20
2019-01-31T15:17:12.450Z,78.20
2019-01-31T15:19:42.360Z,78.15
2019-01-31T15:22:12.395Z,78.22
2019-01-31T15:24:42.437Z,78.24
2019-01-31T15:27:12.150Z,78.20
2019-01-31T15:29:42.114Z,77.90
2019-01-31T15:32:11.988Z,78.26
2019-01-31T15:34:41.837Z,78.33
2019-01-31T15:37:11.560Z,78.40
2019-01-31T15:39:41.974Z,78.35
2019-01-31T15:42:11.572Z,78.13
2019-01-31T15:44:43.500Z,78.13
2019-01-31T15:47:12.967Z,78.26
2019-01-31T15:49:42.902Z,78.35
2019-01-31T15:52:12.569Z,78.49
2019-01-31T15:54:42.478Z,78.61
2019-01-31T15:57:16.686Z,78.58
2019-01-31T15:59:43.670Z,79.02
2019-01-31T16:02:13.576Z,78.92
2019-01-31T16:04:43.694Z,78.78
2019-01-31T16:07:13.349Z,78.57
2019-01-31T16:09:43.073Z,78.66
2019-01-31T16:12:12.943Z,78.88
2019-01-31T16:14:42.512Z,78.81
2019-01-31T16:17:18.615Z,78.94
2019-01-31T16:19:48.467Z,78.96
2019-01-31T16:22:18.212Z,79.01
2019-01-31T16:24:48.013Z,79.05
2019-01-31T16:27:17.655Z,78.92
2019-01-31T16:29:47.260Z,78.96
2019-01-31T16:32:16.924Z,78.78
2019-01-31T16:34:46.785Z,79.03
2019-01-31T16:37:16.690Z,78.86
2019-01-31T16:39:46.482Z,78.91
2019-01-31T16:42:16.193Z,79.15
2019-01-31T16:44:45.906Z,79.32
2019-01-31T16:47:17.168Z,79.41
2019-01-31T16:49:47.120Z,79.51
2019-01-31T16:52:16.998Z,79.60
2019-01-31T16:54:46.918Z,79.81
2019-01-31T16:57:18.900Z,79.66
2019-01-31T16:59:48.514Z,79.67
2019-01-31T17:02:18.398Z,79.65
2019-01-31T17:04:48.440Z,79.68
2019-01-31T17:07:19.159Z,79.66
2019-01-31T17:09:50.606Z,79.61
2019-01-31T17:12:20.332Z,79.50
2019-01-31T17:14:50.037Z,79.35
2019-01-31T17:17:19.914Z,79.21
2019-01-31T17:19:49.854Z,79.38
2019-01-31T17:22:19.643Z,79.37
2019-01-31T17:24:49.532Z,79.08
2019-01-31T17:27:20.684Z,79.18
2019-01-31T17:29:50.644Z,79.31
2019-01-31T17:32:20.836Z,79.29
2019-01-31T17:34:50.800Z,79.21
2019-01-31T17:37:20.435Z,79.30
2019-01-31T17:39:50.728Z,79.39
2019-01-31T17:42:20.700Z,79.38
2019-01-31T17:44:50.276Z,79.39
2019-01-31T17:47:19.831Z,79.25
2019-01-31T17:49:50.052Z,79.33
2019-01-31T17:52:19.797Z,79.08
2019-01-31T17:54:49.640Z,79.20
2019-01-31T17:57:19.563Z,79.13
2019-01-31T17:59:52.600Z,79.19
2019-01-31T18:02:23.826Z,79.09
2019-01-31T18:04:53.855Z,79.01
2019-01-31T18:07:23.835Z,78.98
2019-01-31T18:09:53.583Z,78.94
2019-01-31T18:12:23.592Z,78.87
2019-01-31T18:14:53.560Z,78.85
2019-01-31T18:17:23.446Z,78.93
2019-01-31T18:19:53.324Z,78.87
2019-01-31T18:22:23.101Z,78.61
2019-01-31T18:24:52.766Z,78.75
2019-01-31T18:27:22.965Z,78.94
2019-01-31T18:29:53.120Z,78.73
2019-01-31T18:32:23.276Z,78.65
2019-01-31T18:34:53.390Z,78.60
2019-01-31T18:37:23.099Z,78.69
2019-01-31T18:39:53.009Z,78.62
2019-01-31T18:42:22.792Z,78.86
2019-01-31T18:44:52.444Z,78.80
2019-01-31T18:47:24.457Z,78.84
2019-01-31T18:49:55.815Z,78.82
2019-01-31T18:52:29.045Z,78.98
2019-01-31T18:54:58.764Z,78.91
2019-01-31T18:57:28.675Z,78.97
2019-01-31T18:59:58.497Z,78.83
2019-01-31T19:02:28.259Z,78.80
2019-01-31T19:04:59.187Z,78.76
2019-01-31T19:07:29.269Z,78.76
2019-01-31T19:10:00.036Z,78.68
2019-01-31T19:12:29.932Z,78.59
2019-01-31T19:14:59.879Z,78.80
2019-01-31T19:17:29.671Z,78.89
2019-01-31T19:20:01.610Z,78.96
2019-01-31T19:22:31.868Z,79.03
2019-01-31T19:25:01.607Z,79.10
2019-01-31T19:27:31.395Z,79.11
2019-01-31T19:30:01.232Z,78.98
2019-01-31T19:32:31.010Z,78.93
2019-01-31T19:35:00.863Z,79.00
2019-01-31T19:37:30.634Z,78.87
2019-01-31T19:40:00.584Z,78.90
2019-01-31T19:42:30.526Z,78.92
2019-01-31T19:45:00.362Z,78.95
2019-01-31T19:47:30.351Z,78.96
2019-01-31T19:50:00.523Z,78.83
2019-01-31T19:52:30.322Z,78.71
2019-01-31T19:55:00.339Z,78.89
2019-01-31T19:57:30.431Z,79.00
2019-01-31T20:00:00.310Z,79.00
2019-01-31T20:02:30.051Z,78.98
2019-01-31T20:04:59.743Z,78.88
2019-01-31T20:07:30.061Z,78.68
2019-01-31T20:09:59.815Z,78.66
2019-01-31T20:12:29.837Z,78.96
2019-01-31T20:14:59.592Z,79.12
2019-01-31T20:17:29.654Z,79.04
2019-01-31T20:19:59.489Z,79.14
2019-01-31T20:22:29.346Z,79.12
2019-01-31T20:24:59.224Z,79.26
2019-01-31T20:27:28.993Z,79.32
2019-01-31T20:29:58.849Z,79.22
2019-01-31T20:32:28.552Z,79.31
2019-01-31T20:34:58.473Z,79.37
2019-01-31T20:37:28.429Z,79.41
2019-01-31T20:39:58.429Z,79.42
2019-01-31T20:42:28.045Z,79.32
2019-01-31T20:44:57.973Z,79.26
2019-01-31T20:47:27.635Z,79.26
2019-01-31T20:49:57.211Z,79.30
2019-01-31T20:52:28.910Z,79.42
2019-01-31T20:54:58.718Z,79.36
2019-01-31T20:57:28.637Z,79.40
2019-01-31T20:59:58.324Z,79.38
2019-01-31T21:02:28.204Z,79.64
2019-01-31T21:04:58.091Z,79.67
2019-01-31T21:07:28.293Z,79.55
2019-01-31T21:09:59.711Z,79.33
2019-01-31T21:12:30.252Z,79.40
2019-01-31T21:15:00.318Z,79.57
2019-01-31T21:17:30.102Z,79.28
2019-01-31T21:19:59.735Z,79.25
2019-01-31T21:22:29.615Z,79.43
2019-01-31T21:24:59.288Z,79.43
2019-01-31T21:27:28.993Z,79.51
2019-01-31T21:29:58.697Z,79.42
2019-01-31T21:32:28.348Z,79.40
2019-01-31T21:34:57.951Z,79.53
2019-01-31T21:37:27.587Z,79.55
2019-01-31T21:39:57.485Z,79.54
2019-01-31T21:42:27.243Z,79.94
2019-01-31T21:44:56.929Z,79.99
2019-01-31T21:47:26.435Z,79.96
2019-01-31T21:49:56.139Z,80.39
2019-01-31T21:52:26.007Z,80.26
2019-01-31T21:54:57.192Z,80.36
2019-01-31T21:57:26.820Z,80.52
2019-01-31T21:59:56.470Z,80.30
2019-01-31T22:02:26.080Z,80.22
2019-01-31T22:04:55.804Z,80.34
2019-01-31T22:07:25.610Z,80.32
2019-01-31T22:09:55.420Z,80.24
2019-01-31T22:12:25.081Z,80.23
2019-01-31T22:14:54.723Z,80.10
2019-01-31T22:17:24.932Z,79.88
2019-01-31T22:19:54.638Z,79.82
2019-01-31T22:22:24.235Z,79.77
2019-01-31T22:24:54.203Z,79.72
2019-01-31T22:27:23.857Z,79.66
2019-01-31T22:29:53.566Z,79.80
2019-01-31T22:32:23.119Z,79.92
2019-01-31T22:34:52.887Z,79.72
2019-01-31T22:37:23.086Z,79.78
2019-01-31T22:39:52.740Z,79.82
2019-01-31T22:42:22.437Z,79.79
2019-01-31T22:44:52.038Z,79.63
2019-01-31T22:47:26.148Z,79.91
2019-01-31T22:49:52.976Z,79.93
2019-01-31T22:52:22.581Z,79.78
2019-01-31T22:54:52.276Z,79.82
2019-01-31T22:57:22.242Z,79.84
2019-01-31T22:59:51.744Z,79.80
2019-01-31T23:02:21.610Z,79.69
2019-01-31T23:04:51.300Z,79.56
2019-01-31T23:07:21.064Z,79.54
2019-01-31T23:09:50.744Z,79.44
2019-01-31T23:12:20.463Z,79.20
2019-01-31T23:14:51.567Z,79.20
2019-01-31T23:17:21.263Z,79.35
2019-01-31T23:19:50.827Z,79.28
2019-01-31T23:22:20.425Z,79.33
2019-01-31T23:24:50.087Z,79.26
2019-01-31T23:27:19.921Z,79.41
2019-01-31T23:29:49.558Z,79.57
2019-01-31T23:32:19.269Z,79.45
2019-01-31T23:34:48.982Z,79.22
2019-01-31T23:37:18.621Z,79.20
2019-01-31T23:39:48.426Z,79.45
2019-01-31T23:42:18.218Z,79.53
2019-01-31T23:44:48.261Z,79.51
2019-01-31T23:47:17.905Z,79.64
2019-01-31T23:49:47.632Z,79.58
2019-01-31T23:52:17.219Z,79.85
2019-01-31T23:54:46.907Z,79.89
2019-01-31T23:57:16.697Z,80.01
2019-01-31T23:59:46.739Z,80.05
